Time;durP1;ratioP1;P1;durP2;ratioP2;P2;SDS_P1;SDS_P2;PMS_P1;PMS_P2;Temp;Humidity;BMP_temperature;BMP_pressure;BME280_temperature;BME280_humidity;BME280_pressure;Samples;Min_cycle;Max_cycle;Signal;HPM_P1;HPM_P2
2022/06/15 00:01:47;;;;;;;4.50;4.03;;;12.00;99.90;;;;;;4939432;29;20059;-76
2022/06/15 00:04:13;;;;;;;6.35;3.83;;;12.00;99.90;;;;;;4939384;29;20024;-76
2022/06/15 00:06:41;;;;;;;6.55;4.15;;;12.00;99.90;;;;;;4939303;29;20042;-76
2022/06/15 00:09:07;;;;;;;7.15;4.32;;;11.90;99.90;;;;;;4922112;29;20464;-76
2022/06/15 00:11:39;;;;;;;4.60;3.70;;;11.90;99.90;;;;;;4938961;29;20495;-76
2022/06/15 00:14:15;;;;;;;7.00;3.60;;;11.90;99.90;;;;;;4922127;29;20491;-76
2022/06/15 00:16:41;;;;;;;4.32;3.65;;;11.80;99.90;;;;;;4939250;29;20484;-76
2022/06/15 00:19:07;;;;;;;7.07;4.30;;;11.80;99.90;;;;;;4921922;29;20118;-76
2022/06/15 00:21:33;;;;;;;8.68;4.13;;;11.80;99.90;;;;;;4939089;29;20046;-76
2022/06/15 00:23:58;;;;;;;4.03;3.65;;;11.80;99.90;;;;;;4939314;29;20035;-76
2022/06/15 00:26:25;;;;;;;7.25;3.80;;;11.70;99.90;;;;;;4938523;29;20074;-76
2022/06/15 00:28:51;;;;;;;6.30;4.07;;;11.70;99.90;;;;;;4921837;29;20061;-76
2022/06/15 00:31:18;;;;;;;5.53;3.85;;;11.70;99.90;;;;;;4939143;29;20039;-76
2022/06/15 00:33:44;;;;;;;9.48;4.50;;;11.70;99.90;;;;;;4939169;29;20034;-76
2022/06/15 00:36:21;;;;;;;9.70;5.22;;;11.60;99.90;;;;;;4939070;29;20031;-76
2022/06/15 00:38:52;;;;;;;5.00;3.88;;;11.60;99.90;;;;;;4938803;29;20024;-76
2022/06/15 00:41:28;;;;;;;8.55;4.38;;;11.60;99.90;;;;;;4939040;29;20044;-76
2022/06/15 00:43:53;;;;;;;6.90;4.90;;;11.60;99.90;;;;;;4938474;29;20472;-76
2022/06/15 00:46:39;;;;;;;6.03;4.22;;;11.50;99.90;;;;;;4921490;29;20131;-75
2022/06/15 00:49:17;;;;;;;8.68;4.68;;;11.60;99.90;;;;;;4922149;29;20083;-76
2022/06/15 00:51:45;;;;;;;5.43;4.45;;;11.50;99.90;;;;;;4921951;29;20405;-76
2022/06/15 00:54:11;;;;;;;5.75;4.22;;;11.50;99.90;;;;;;4938471;29;20032;-76
2022/06/15 00:56:38;;;;;;;5.72;4.28;;;11.50;99.90;;;;;;4938443;29;20036;-76
2022/06/15 00:59:09;;;;;;;8.25;5.05;;;11.50;99.90;;;;;;4938340;29;20103;-76
2022/06/15 01:01:35;;;;;;;4.80;4.25;;;11.40;99.90;;;;;;4938398;29;20447;-76
2022/06/15 01:04:03;;;;;;;5.80;4.32;;;11.40;99.90;;;;;;4921500;29;20066;-76
2022/06/15 01:06:49;;;;;;;6.47;4.10;;;11.40;99.90;;;;;;4938274;29;20032;-76
2022/06/15 01:09:30;;;;;;;7.45;4.20;;;11.30;99.90;;;;;;4938267;29;20067;-76
2022/06/15 01:11:58;;;;;;;6.10;4.32;;;11.30;99.90;;;;;;4937279;29;20031;-76
2022/06/15 01:14:38;;;;;;;7.47;4.18;;;11.30;99.90;;;;;;4938189;29;20102;-76
2022/06/15 01:17:13;;;;;;;4.93;4.43;;;11.20;99.90;;;;;;4937922;29;20032;-76
2022/06/15 01:19:57;;;;;;;11.90;5.00;;;11.30;99.90;;;;;;4938020;29;20071;-76
2022/06/15 01:22:52;;;;;;;6.50;4.47;;;11.30;99.90;;;;;;4937925;29;20538;-76
2022/06/15 01:25:26;;;;;;;5.57;4.75;;;11.30;99.90;;;;;;4868991;29;20064;-76
2022/06/15 01:28:10;;;;;;;6.72;4.85;;;11.20;99.90;;;;;;4919173;29;20032;-76
2022/06/15 01:30:44;;;;;;;6.05;4.75;;;11.20;99.90;;;;;;4919473;29;20059;-76
2022/06/15 01:33:16;;;;;;;7.47;5.15;;;11.20;99.90;;;;;;4918893;29;20020;-75
2022/06/15 01:36:16;;;;;;;6.28;5.00;;;11.20;99.90;;;;;;4902060;29;20024;-76
2022/06/15 01:39:10;;;;;;;6.60;4.22;;;11.10;99.90;;;;;;4902348;29;20032;-76
2022/06/15 01:41:45;;;;;;;6.65;4.32;;;11.10;99.90;;;;;;4913037;29;20075;-76
2022/06/15 01:44:26;;;;;;;10.32;4.88;;;11.10;99.90;;;;;;4918696;29;20032;-76
2022/06/15 01:46:53;;;;;;;7.43;4.72;;;11.10;99.90;;;;;;4901152;29;20032;-76
2022/06/15 01:49:21;;;;;;;7.53;4.57;;;11.10;99.90;;;;;;4901541;29;20036;-76
2022/06/15 01:51:49;;;;;;;7.18;4.82;;;11.00;99.90;;;;;;4901494;29;20455;-76
2022/06/15 01:54:39;;;;;;;9.25;4.90;;;11.00;99.90;;;;;;4918339;29;20057;-76
2022/06/15 01:57:05;;;;;;;;;;;11.00;99.90;;;;;;4902371;29;20032;-76
2022/06/15 01:59:37;;;;;;;6.28;4.40;;;10.90;99.90;;;;;;4918223;29;19918;-76
2022/06/15 02:02:27;;;;;;;5.70;4.80;;;10.90;99.90;;;;;;4918403;29;20476;-76
2022/06/15 02:05:08;;;;;;;6.25;4.28;;;10.90;99.90;;;;;;4901019;29;20032;-76
2022/06/15 02:07:43;;;;;;;7.43;4.50;;;10.90;99.90;;;;;;4918205;29;20063;-76
2022/06/15 02:10:20;;;;;;;6.45;4.97;;;10.80;99.90;;;;;;4901156;29;20417;-76
2022/06/15 02:12:59;;;;;;;7.43;4.60;;;10.80;99.90;;;;;;4918165;29;20091;-76
2022/06/15 02:15:28;;;;;;;5.97;4.55;;;10.80;99.90;;;;;;4918315;29;20111;-76
2022/06/15 02:17:57;;;;;;;8.40;4.63;;;10.80;99.90;;;;;;4918144;29;20032;-76
2022/06/15 02:20:30;;;;;;;8.13;5.10;;;10.80;99.90;;;;;;4918023;29;20053;-76
2022/06/15 02:22:59;;;;;;;6.22;4.68;;;10.80;99.90;;;;;;4917358;29;20051;-76
2022/06/15 02:25:28;;;;;;;5.40;4.70;;;10.80;99.90;;;;;;4905697;29;20052;-76
2022/06/15 02:27:55;;;;;;;;;;;10.80;99.90;;;;;;4937354;29;20371;-75
2022/06/15 02:30:24;;;;;;;6.78;4.35;;;10.70;99.90;;;;;;4936545;29;19907;-76
2022/06/15 02:32:51;;;;;;;6.75;5.05;;;10.70;99.90;;;;;;4919720;29;20460;-76
2022/06/15 02:35:20;;;;;;;8.05;4.63;;;10.70;99.90;;;;;;4920440;29;20091;-76
2022/06/15 02:37:46;;;;;;;8.90;5.57;;;10.70;99.90;;;;;;4919767;29;20032;-76
2022/06/15 02:40:21;;;;;;;5.85;5.03;;;10.70;99.90;;;;;;4919620;29;20047;-75
2022/06/15 02:42:47;;;;;;;9.40;5.20;;;10.70;99.90;;;;;;4936729;29;20023;-76
2022/06/15 02:45:28;;;;;;;6.38;5.20;;;10.60;99.90;;;;;;4936713;29;20496;-76
2022/06/15 02:47:55;;;;;;;7.07;4.80;;;10.60;99.90;;;;;;4919808;29;20086;-76
2022/06/15 02:50:23;;;;;;;8.80;5.55;;;10.60;99.90;;;;;;4936804;29;20036;-76
2022/06/15 02:53:04;;;;;;;6.25;4.57;;;10.70;99.90;;;;;;4919596;29;20412;-76
2022/06/15 02:55:30;;;;;;;10.52;4.85;;;10.60;99.90;;;;;;4936500;29;20035;-76
2022/06/15 02:58:09;;;;;;;5.65;5.13;;;10.60;99.90;;;;;;4936583;29;20032;-76
2022/06/15 03:00:35;;;;;;;;;;;10.60;99.90;;;;;;4936932;29;20109;-76
2022/06/15 03:03:01;;;;;;;7.38;5.18;;;10.60;99.90;;;;;;4919392;29;20369;-76
2022/06/15 03:05:27;;;;;;;7.32;4.85;;;10.60;99.90;;;;;;4936463;29;20078;-76
2022/06/15 03:07:52;;;;;;;7.80;5.35;;;10.60;99.90;;;;;;4936673;29;20032;-76
2022/06/15 03:10:18;;;;;;;9.13;4.93;;;10.60;99.90;;;;;;4936456;29;20040;-76
2022/06/15 03:12:43;;;;;;;7.65;4.70;;;10.60;99.90;;;;;;4936512;29;20024;-76
2022/06/15 03:15:10;;;;;;;8.02;4.85;;;10.60;99.90;;;;;;4936164;29;20024;-75
2022/06/15 03:17:36;;;;;;;6.65;5.20;;;10.60;99.90;;;;;;4919337;29;20024;-76
2022/06/15 03:20:02;;;;;;;7.05;5.13;;;10.70;99.90;;;;;;4936419;29;20036;-76
2022/06/15 03:22:28;;;;;;;8.45;4.68;;;10.70;99.90;;;;;;4936444;29;20137;-76
2022/06/15 03:24:54;;;;;;;12.25;5.93;;;10.70;99.90;;;;;;4936065;29;20067;-75
2022/06/15 03:27:19;;;;;;;7.03;4.75;;;10.70;99.90;;;;;;4936683;29;20050;-76
2022/06/15 03:29:47;;;;;;;9.50;5.15;;;10.80;99.90;;;;;;4919344;29;20027;-76
2022/06/15 03:32:15;;;;;;;10.52;5.18;;;10.80;99.90;;;;;;4919356;29;20034;-76
2022/06/15 03:34:41;;;;;;;11.55;5.07;;;10.90;99.90;;;;;;4919966;29;20171;-76
2022/06/15 03:37:07;;;;;;;5.63;4.75;;;10.90;99.90;;;;;;4922436;29;20038;-76
2022/06/15 03:39:32;;;;;;;6.50;4.72;;;11.00;99.90;;;;;;4939769;29;20036;-76
2022/06/15 03:42:15;;;;;;;5.28;4.78;;;11.00;99.90;;;;;;4922755;29;20024;-75
2022/06/15 03:44:41;;;;;;;6.80;4.70;;;11.10;99.90;;;;;;4922752;29;20024;-76
2022/06/15 03:47:20;;;;;;;6.15;4.47;;;11.20;99.90;;;;;;4939809;29;20032;-76
2022/06/15 03:49:51;;;;;;;6.30;4.45;;;11.20;99.90;;;;;;4922840;29;20361;-76
2022/06/15 03:52:19;;;;;;;5.95;4.60;;;11.20;99.90;;;;;;4939584;29;20119;-76
2022/06/15 03:54:45;;;;;;;4.97;4.35;;;11.30;99.90;;;;;;4922967;29;20047;-76
2022/06/15 03:57:16;;;;;;;6.07;5.15;;;11.40;99.90;;;;;;4939476;29;20039;-79
2022/06/15 03:59:42;;;;;;;7.18;4.20;;;11.50;99.90;;;;;;4939727;29;20063;-79
2022/06/15 04:02:09;;;;;;;5.03;4.53;;;11.60;99.90;;;;;;4922387;29;20059;-80
2022/06/15 04:04:34;;;;;;;4.85;4.20;;;11.70;99.90;;;;;;4939310;29;20028;-78
2022/06/15 04:07:01;;;;;;;4.47;3.55;;;11.70;99.90;;;;;;4939323;29;20055;-79
2022/06/15 04:09:27;;;;;;;4.82;4.43;;;11.90;99.90;;;;;;4922122;29;20067;-79
2022/06/15 04:12:01;;;;;;;6.53;4.63;;;11.90;99.90;;;;;;4922175;29;20492;-81
2022/06/15 04:14:30;;;;;;;10.38;4.40;;;12.00;99.90;;;;;;4939489;29;20027;-83
2022/06/15 04:16:56;;;;;;;;;;;12.10;99.90;;;;;;4922913;29;20114;-83
2022/06/15 04:19:25;;;;;;;5.63;3.88;;;12.20;99.90;;;;;;4939002;29;20390;-85
2022/06/15 04:21:50;;;;;;;4.80;4.00;;;12.30;99.90;;;;;;4939584;29;20028;-81
2022/06/15 04:24:18;;;;;;;7.93;4.45;;;12.40;99.90;;;;;;4939201;29;20503;-61
2022/06/15 04:26:46;;;;;;;6.10;4.13;;;12.50;99.90;;;;;;4939559;29;20560;-61
2022/06/15 04:29:12;;;;;;;4.40;3.47;;;12.60;99.90;;;;;;4939152;29;20028;-61
2022/06/15 04:31:38;;;;;;;5.72;4.05;;;12.70;99.90;;;;;;4921699;29;20446;-63
2022/06/15 04:34:05;;;;;;;4.90;3.92;;;12.70;99.90;;;;;;4938669;29;20035;-61
2022/06/15 04:36:31;;;;;;;5.57;3.70;;;12.80;99.90;;;;;;4938791;29;20056;-61
2022/06/15 04:38:57;;;;;;;7.72;3.60;;;12.90;99.90;;;;;;4938411;29;20456;-61
2022/06/15 04:41:23;;;;;;;8.55;3.97;;;13.00;99.90;;;;;;4938596;29;20392;-88
2022/06/15 04:43:49;;;;;;;5.78;3.70;;;13.00;99.90;;;;;;4922326;29;20028;-85
2022/06/15 04:46:14;;;;;;;5.90;4.03;;;13.00;99.90;;;;;;4922341;29;20027;-90
2022/06/15 04:48:41;;;;;;;3.78;3.35;;;13.00;99.90;;;;;;4939264;29;20044;-82
2022/06/15 04:51:15;;;;;;;6.30;4.07;;;13.10;99.90;;;;;;4922208;29;20032;-89
2022/06/15 04:53:40;;;;;;;4.57;3.50;;;13.00;99.90;;;;;;4939165;29;20151;-89
2022/06/15 04:56:07;;;;;;;10.13;4.30;;;13.10;99.90;;;;;;4938704;29;20051;-76
2022/06/15 04:58:33;;;;;;;4.68;3.90;;;13.10;99.90;;;;;;4938636;29;20028;-85
2022/06/15 05:00:58;;;;;;;7.40;3.58;;;13.10;99.90;;;;;;4938465;29;20046;-79
2022/06/15 05:03:24;;;;;;;7.13;3.90;;;13.10;99.90;;;;;;4921740;29;20024;-84
2022/06/15 05:05:55;;;;;;;4.35;3.67;;;13.10;99.90;;;;;;4921803;29;20067;-80
2022/06/15 05:08:20;;;;;;;4.82;3.80;;;13.20;99.90;;;;;;4938364;29;20452;-84
2022/06/15 05:10:46;;;;;;;5.22;3.85;;;13.20;99.90;;;;;;4938420;29;20071;-88
2022/06/15 05:13:12;;;;;;;6.75;3.70;;;13.30;99.90;;;;;;4922081;29;20515;-88
2022/06/15 05:15:38;;;;;;;7.57;3.80;;;13.30;99.90;;;;;;4938927;29;20523;-81
2022/06/15 05:18:06;;;;;;;4.07;3.72;;;13.40;99.90;;;;;;4920989;29;20028;-82
2022/06/15 05:20:34;;;;;;;6.50;3.92;;;13.50;99.90;;;;;;4921389;29;20040;-83
2022/06/15 05:23:00;;;;;;;8.82;4.38;;;13.60;99.90;;;;;;4937932;29;20031;-78
2022/06/15 05:25:27;;;;;;;5.35;3.97;;;13.80;99.90;;;;;;4937899;29;20051;-77
2022/06/15 05:27:52;;;;;;;6.00;4.03;;;13.90;99.90;;;;;;4937900;29;20478;-77
2022/06/15 05:30:18;;;;;;;5.63;4.03;;;14.00;99.90;;;;;;4938108;29;20062;-78
2022/06/15 05:32:45;;;;;;;12.82;4.43;;;14.20;99.90;;;;;;4937566;29;20070;-77
2022/06/15 05:35:10;;;;;;;4.50;4.05;;;14.40;99.90;;;;;;4920748;29;20055;-78
2022/06/15 05:37:36;;;;;;;5.20;3.95;;;14.60;99.90;;;;;;4938116;29;20067;-85
2022/06/15 05:40:03;;;;;;;9.20;5.45;;;14.70;99.90;;;;;;4937979;29;20032;-82
2022/06/15 05:42:29;;;;;;;7.63;4.30;;;14.90;99.90;;;;;;4920720;29;20469;-78
2022/06/15 05:44:55;;;;;;;8.05;4.80;;;15.10;99.90;;;;;;4919999;29;20047;-79
2022/06/15 05:47:21;;;;;;;8.73;4.72;;;15.30;99.90;;;;;;4937418;29;20031;-79
2022/06/15 05:49:48;;;;;;;12.48;3.95;;;15.40;99.90;;;;;;4937078;29;20028;-79
2022/06/15 05:52:13;;;;;;;5.75;4.65;;;15.50;99.90;;;;;;4937228;29;20088;-62
2022/06/15 05:54:39;;;;;;;7.68;4.53;;;15.80;99.90;;;;;;4937352;29;20472;-62
2022/06/15 05:57:20;;;;;;;12.32;4.47;;;16.10;99.90;;;;;;4936907;29;20027;-62
2022/06/15 05:59:46;;;;;;;8.68;4.63;;;16.30;99.90;;;;;;4937077;29;20035;-62
2022/06/15 06:02:13;;;;;;;8.70;4.75;;;16.50;99.90;;;;;;4936905;29;20596;-63
2022/06/15 06:04:39;;;;;;;13.20;5.75;;;16.80;99.90;;;;;;4937022;29;20396;-62
2022/06/15 06:07:05;;;;;;;10.85;5.03;;;16.90;99.90;;;;;;4937308;29;20027;-62
2022/06/15 06:09:31;;;;;;;6.75;4.88;;;17.10;99.90;;;;;;4937084;29;20028;-62
2022/06/15 06:11:57;;;;;;;10.13;5.22;;;17.30;99.90;;;;;;4919888;29;20483;-62
2022/06/15 06:14:22;;;;;;;7.80;4.57;;;17.50;99.90;;;;;;4937189;29;20464;-62
2022/06/15 06:16:48;;;;;;;10.57;4.50;;;17.70;99.90;;;;;;4936968;29;20453;-62
2022/06/15 06:19:14;;;;;;;8.80;4.78;;;18.00;99.90;;;;;;4936789;29;20028;-79
2022/06/15 06:21:39;;;;;;;10.25;4.30;;;18.50;99.90;;;;;;4919818;29;20024;-80
2022/06/15 06:24:05;;;;;;;9.50;4.50;;;19.10;99.90;;;;;;4919934;29;20031;-80
2022/06/15 06:26:32;;;;;;;7.95;4.60;;;19.70;99.90;;;;;;4936385;29;20051;-80
2022/06/15 06:28:59;;;;;;;8.57;4.50;;;20.20;99.90;;;;;;4919543;29;20059;-80
2022/06/15 06:31:25;;;;;;;7.60;4.13;;;20.30;99.90;;;;;;4936695;29;20036;-80
2022/06/15 06:33:51;;;;;;;8.43;3.72;;;20.50;99.90;;;;;;4936484;29;20098;-72
2022/06/15 06:36:33;;;;;;;8.48;3.63;;;20.80;99.90;;;;;;4936681;29;20116;-69
2022/06/15 06:39:01;;;;;;;9.38;4.45;;;21.00;99.90;;;;;;4936970;29;20035;-68
2022/06/15 06:41:28;;;;;;;10.87;3.83;;;21.30;99.90;;;;;;4936314;29;20050;-70
2022/06/15 06:43:55;;;;;;;7.97;3.28;;;21.60;99.90;;;;;;4936554;29;20031;-71
2022/06/15 06:46:21;;;;;;;8.55;3.58;;;21.60;99.90;;;;;;4936337;29;20386;-80
2022/06/15 06:48:47;;;;;;;9.13;3.70;;;21.80;99.10;;;;;;4936599;29;20030;-78
2022/06/15 06:51:13;;;;;;;5.60;3.30;;;22.10;97.60;;;;;;4919631;29;20028;-81
2022/06/15 06:53:39;;;;;;;3.80;2.42;;;22.30;98.00;;;;;;4936620;29;20118;-83
2022/06/15 06:56:07;;;;;;;8.60;3.13;;;22.50;97.00;;;;;;4936653;29;20031;-81
2022/06/15 06:58:34;;;;;;;3.77;2.90;;;22.90;95.90;;;;;;4936777;29;20503;-84
2022/06/15 07:01:00;;;;;;;9.00;2.70;;;22.90;94.20;;;;;;4936622;29;20110;-83
2022/06/15 07:03:26;;;;;;;4.55;2.47;;;23.10;93.40;;;;;;4936612;29;20055;-83
2022/06/15 07:05:59;;;;;;;5.35;2.78;;;23.20;92.80;;;;;;4936626;29;20484;-79
2022/06/15 07:08:24;;;;;;;5.63;2.90;;;23.00;92.30;;;;;;4937154;29;20020;-83
2022/06/15 07:10:50;;;;;;;8.70;2.85;;;23.00;91.70;;;;;;4940545;29;20035;-82
2022/06/15 07:13:16;;;;;;;4.75;2.50;;;23.30;91.70;;;;;;4923211;29;20486;-81
2022/06/15 07:15:41;;;;;;;4.07;2.55;;;23.50;90.40;;;;;;4923167;29;20032;-81
2022/06/15 07:18:07;;;;;;;6.85;3.05;;;23.20;88.20;;;;;;4940109;29;20030;-63
2022/06/15 07:20:33;;;;;;;3.83;2.75;;;22.90;89.60;;;;;;4939732;29;20039;-58
2022/06/15 07:22:59;;;;;;;6.25;3.10;;;23.10;88.70;;;;;;4940282;29;20024;-58
2022/06/15 07:25:25;;;;;;;3.72;2.55;;;22.90;90.30;;;;;;4939948;29;20395;-58
2022/06/15 07:27:51;;;;;;;3.90;2.47;;;23.00;88.60;;;;;;4939988;29;20088;-57
2022/06/15 07:30:22;;;;;;;5.18;2.83;;;23.10;89.60;;;;;;4940181;29;20042;-58
2022/06/15 07:32:48;;;;;;;6.05;2.50;;;23.20;88.30;;;;;;4939514;29;20040;-58
2022/06/15 07:35:21;;;;;;;7.30;3.10;;;23.40;89.30;;;;;;4940146;29;20040;-58
2022/06/15 07:37:47;;;;;;;6.15;2.67;;;23.70;87.90;;;;;;4940077;29;20024;-58
2022/06/15 07:40:14;;;;;;;4.97;2.67;;;23.70;84.70;;;;;;4939697;29;20042;-58
2022/06/15 07:42:40;;;;;;;5.95;2.70;;;24.00;84.70;;;;;;4940147;29;20503;-62
2022/06/15 07:45:06;;;;;;;7.63;2.30;;;24.30;83.90;;;;;;4939693;29;20369;-60
2022/06/15 07:50:17;;;;;;;3.78;2.28;;;24.50;82.20;;;;;;4939520;29;20441;-60
2022/06/15 07:52:45;;;;;;;3.95;2.40;;;24.60;80.60;;;;;;4939549;29;20114;-60
2022/06/15 07:55:14;;;;;;;2.80;2.20;;;24.80;81.00;;;;;;4939508;29;20028;-60
2022/06/15 07:57:41;;;;;;;5.18;2.70;;;25.20;79.00;;;;;;4939454;29;20035;-60
2022/06/15 08:00:08;;;;;;;4.85;2.53;;;25.60;75.10;;;;;;4922292;29;20036;-81
2022/06/15 08:02:34;;;;;;;6.03;2.50;;;25.90;71.80;;;;;;4922243;29;20031;-82
2022/06/15 08:05:00;;;;;;;8.40;2.42;;;25.80;70.40;;;;;;4922389;29;20035;-84
2022/06/15 08:07:26;;;;;;;4.95;2.75;;;25.90;68.50;;;;;;4939707;29;20039;-82
2022/06/15 08:09:52;;;;;;;4.38;2.72;;;25.80;68.80;;;;;;4939376;29;20457;-82
2022/06/15 08:12:19;;;;;;;6.80;2.58;;;25.40;69.50;;;;;;4922917;29;20043;-81
2022/06/15 08:14:52;;;;;;;4.40;2.22;;;25.00;72.50;;;;;;4939424;29;20361;-83
2022/06/15 08:17:23;;;;;;;6.45;2.63;;;24.90;71.70;;;;;;4939514;29;20032;-86
2022/06/15 08:19:53;;;;;;;4.28;2.45;;;24.50;74.00;;;;;;4922652;29;20036;-81
2022/06/15 08:22:19;;;;;;;4.90;3.15;;;24.80;73.00;;;;;;4938698;29;20032;-82
2022/06/15 08:24:45;;;;;;;4.75;2.72;;;24.60;70.90;;;;;;4921684;29;20064;-81
2022/06/15 08:27:14;;;;;;;5.22;2.67;;;24.50;74.00;;;;;;4939217;29;20048;-81
2022/06/15 08:29:41;;;;;;;10.00;2.43;;;24.50;73.80;;;;;;4938826;29;20032;-80
2022/06/15 08:32:07;;;;;;;4.88;2.38;;;24.50;75.00;;;;;;4939255;29;20669;-82
2022/06/15 08:34:37;;;;;;;5.55;2.70;;;24.70;74.40;;;;;;4939500;29;20071;-85
2022/06/15 08:37:05;;;;;;;7.57;2.60;;;24.50;73.70;;;;;;4922434;29;20110;-81
2022/06/15 08:39:31;;;;;;;7.72;2.30;;;24.50;75.80;;;;;;4922720;29;20039;-82
2022/06/15 08:42:03;;;;;;;5.43;2.80;;;24.40;72.60;;;;;;4939123;29;20388;-82
2022/06/15 08:44:46;;;;;;;5.00;2.72;;;23.80;74.50;;;;;;4939054;29;20034;-86
2022/06/15 08:47:28;;;;;;;8.43;2.90;;;23.60;76.20;;;;;;4938796;29;20380;-81
2022/06/15 08:49:54;;;;;;;3.78;2.45;;;23.80;75.30;;;;;;4921953;29;20032;-84
2022/06/15 08:52:44;;;;;;;6.13;2.67;;;23.90;76.10;;;;;;4939044;29;20028;-84
2022/06/15 08:55:20;;;;;;;3.42;2.20;;;24.30;74.50;;;;;;4939049;29;20024;-82
2022/06/15 08:58:00;;;;;;;5.63;2.50;;;24.50;73.60;;;;;;4938413;29;20035;-79
2022/06/15 09:00:35;;;;;;;8.00;2.42;;;25.00;74.60;;;;;;4921390;29;20036;-82
2022/06/15 09:03:21;;;;;;;4.22;2.70;;;25.70;73.10;;;;;;4921415;29;20038;-81
2022/06/15 09:06:14;;;;;;;5.40;2.30;;;26.40;67.80;;;;;;4922100;29;20035;-84
2022/06/15 09:08:57;;;;;;;4.95;2.40;;;27.20;65.40;;;;;;4921573;29;20051;-81
2022/06/15 09:12:49;;;;;;;5.90;2.28;;;27.80;62.90;;;;;;4938206;29;20075;-82
2022/06/15 09:14:55;;;;;;;4.57;2.17;;;28.00;62.30;;;;;;4937756;29;20047;-81
2022/06/15 09:17:24;;;;;;;4.55;2.10;;;28.40;60.00;;;;;;4921347;29;20062;-84
2022/06/15 09:19:49;;;;;;;3.75;2.22;;;28.80;58.60;;;;;;4938451;29;20040;-90
2022/06/15 09:22:20;;;;;;;4.53;2.20;;;29.00;56.90;;;;;;4921245;29;20034;-82
2022/06/15 09:25:28;;;;;;;5.38;2.65;;;29.20;56.00;;;;;;4937546;29;20034;-82
2022/06/15 09:28:00;;;;;;;2.50;2.10;;;29.10;55.70;;;;;;4901064;29;20060;-81
2022/06/15 09:30:31;;;;;;;3.63;1.88;;;29.00;55.60;;;;;;4920902;29;20039;-80
2022/06/15 09:33:16;;;;;;;6.15;3.05;;;29.20;55.50;;;;;;4919797;29;20028;-80
2022/06/15 09:35:53;;;;;;;7.03;2.33;;;29.10;54.50;;;;;;4921565;29;20038;-84
2022/06/15 09:38:19;;;;;;;5.47;2.50;;;28.50;55.00;;;;;;4937727;29;20055;-80
2022/06/15 09:41:09;;;;;;;7.35;2.65;;;28.90;54.30;;;;;;4937771;29;20035;-85
2022/06/15 09:43:50;;;;;;;6.35;2.10;;;29.10;55.30;;;;;;4920460;29;20470;-81
2022/06/15 09:46:38;;;;;;;4.50;1.98;;;29.50;53.60;;;;;;4937983;29;20039;-82
2022/06/15 09:49:07;;;;;;;2.25;1.63;;;30.30;53.20;;;;;;4937699;29;20063;-86
2022/06/15 09:51:46;;;;;;;;;;;30.90;50.10;;;;;;4920994;29;20031;-82
2022/06/15 09:54:36;;;;;;;4.47;2.00;;;31.30;50.10;;;;;;4937272;29;19906;-83
2022/06/15 09:57:02;;;;;;;3.28;1.90;;;31.80;48.40;;;;;;4920452;29;20031;-84
2022/06/15 09:59:33;;;;;;;3.92;2.20;;;31.80;47.20;;;;;;4937003;29;20024;-83
2022/06/15 10:02:02;;;;;;;4.25;2.03;;;31.60;46.20;;;;;;4920161;29;20035;-83
2022/06/15 10:04:31;;;;;;;6.65;2.65;;;31.50;47.00;;;;;;4937369;29;20024;-83
2022/06/15 10:07:00;;;;;;;;;;;30.30;47.90;;;;;;4937275;29;20020;-84
2022/06/15 10:09:31;;;;;;;6.70;1.85;;;30.00;48.00;;;;;;4936955;29;19914;-83
2022/06/15 10:12:56;;;;;;;3.28;1.95;;;29.30;49.70;;;;;;4937056;29;20054;-83
2022/06/15 10:14:51;;;;;;;5.63;2.00;;;29.10;49.80;;;;;;4936509;29;20492;-83
2022/06/15 10:17:31;;;;;;;6.43;2.00;;;29.00;50.10;;;;;;4936884;29;20034;-83
2022/06/15 10:19:58;;;;;;;4.10;2.42;;;29.40;50.30;;;;;;4936830;29;20110;-83
2022/06/15 10:22:28;;;;;;;5.38;1.77;;;30.10;50.90;;;;;;4937006;29;20031;-84
2022/06/15 10:24:57;;;;;;;2.95;1.48;;;30.40;48.80;;;;;;4937034;29;20086;-75
2022/06/15 10:27:36;;;;;;;3.97;2.00;;;30.40;51.00;;;;;;4937005;29;20024;-76
2022/06/15 10:30:08;;;;;;;3.53;1.65;;;29.70;50.90;;;;;;4936768;29;20094;-76
2022/06/15 10:32:57;;;;;;;9.05;1.80;;;29.30;51.30;;;;;;4936756;29;20036;-78
2022/06/15 10:35:24;;;;;;;3.42;1.85;;;29.60;52.80;;;;;;4926406;29;20040;-75
2022/06/15 10:37:54;;;;;;;3.35;2.00;;;30.10;50.50;;;;;;4936360;29;20369;-74
2022/06/15 10:40:29;;;;;;;6.80;1.80;;;30.50;50.00;;;;;;4936710;29;20063;-78
2022/06/15 10:43:12;;;;;;;6.47;1.70;;;30.50;50.20;;;;;;4919400;29;20023;-75
2022/06/15 10:45:42;;;;;;;3.72;1.80;;;30.30;49.40;;;;;;4936601;29;20042;-76
2022/06/15 10:48:21;;;;;;;2.17;1.88;;;30.00;48.30;;;;;;4936393;29;20047;-78
2022/06/15 10:50:49;;;;;;;1.83;1.73;;;29.50;49.60;;;;;;4936830;29;20452;-77
2022/06/15 10:53:33;;;;;;;4.25;2.25;;;29.70;48.90;;;;;;4936167;29;20448;-78
2022/06/15 11:02:07;;;;;;;5.28;2.08;;;28.90;51.10;;;;;;4936449;29;20039;-76
2022/06/15 11:04:43;;;;;;;3.17;2.00;;;28.80;50.90;;;;;;4936680;29;20039;-77
2022/06/15 11:07:20;;;;;;;6.75;1.63;;;28.00;52.30;;;;;;4936635;29;20035;-76
2022/06/15 11:09:55;;;;;;;5.88;2.55;;;28.40;52.90;;;;;;4936457;29;20038;-75
2022/06/15 11:12:35;;;;;;;3.95;1.95;;;29.30;51.20;;;;;;4936308;29;20031;-76
2022/06/15 11:18:01;;;;;;;4.93;1.98;;;28.90;50.50;;;;;;4936464;29;20032;-76
2022/06/15 11:18:42;;;;;;;2.88;1.77;;;29.20;50.30;;;;;;4935806;29;20559;-75
2022/06/15 11:21:25;;;;;;;4.13;1.60;;;29.70;51.40;;;;;;4935981;29;20044;-76
2022/06/15 11:24:25;;;;;;;4.55;1.70;;;30.10;49.40;;;;;;4936349;29;20099;-82
2022/06/15 11:26:57;;;;;;;6.85;1.90;;;29.30;49.20;;;;;;4937241;29;20090;-86
2022/06/15 11:29:38;;;;;;;3.28;1.80;;;29.30;50.50;;;;;;4920085;29;20524;-90
2022/06/15 11:32:28;;;;;;;4.30;1.73;;;30.50;49.80;;;;;;4937028;29;20035;-84
2022/06/15 11:35:14;;;;;;;10.13;2.53;;;31.60;48.50;;;;;;4920310;29;20028;-88
2022/06/15 11:38:02;;;;;;;3.53;1.70;;;32.30;46.60;;;;;;4936873;29;20455;-90
2022/06/15 11:40:33;;;;;;;4.15;1.77;;;33.10;44.10;;;;;;4936438;29;20372;-86
2022/06/15 11:43:01;;;;;;;3.60;1.63;;;32.50;43.60;;;;;;4919662;29;20023;-91
2022/06/15 11:45:53;;;;;;;3.97;1.80;;;32.60;44.70;;;;;;4919783;29;20031;-84
2022/06/15 11:48:21;;;;;;;5.00;2.00;;;33.20;43.40;;;;;;4919673;29;20028;-87
2022/06/15 11:50:54;;;;;;;;;;;33.70;41.40;;;;;;4936584;29;20079;-83
2022/06/15 11:53:44;;;;;;;2.92;1.70;;;34.30;41.60;;;;;;4918906;29;19911;-61
2022/06/15 11:56:15;;;;;;;6.22;2.03;;;34.00;42.60;;;;;;4937195;29;20028;-60
2022/06/15 11:59:03;;;;;;;3.33;1.67;;;32.60;43.10;;;;;;4939431;29;20101;-70
2022/06/15 12:01:44;;;;;;;2.33;1.63;;;31.90;46.30;;;;;;4922205;29;20028;-73
2022/06/15 12:04:27;;;;;;;5.25;1.63;;;31.70;45.40;;;;;;4939364;29;20395;-72
2022/06/15 12:07:00;;;;;;;5.13;1.60;;;32.60;44.10;;;;;;4939863;29;20107;-71
2022/06/15 12:09:35;;;;;;;2.88;1.90;;;34.20;41.60;;;;;;4922021;29;20492;-75
2022/06/15 12:15:05;;;;;;;4.55;1.40;;;33.90;39.60;;;;;;4939613;29;20559;-74
2022/06/15 12:17:45;;;;;;;1.92;1.48;;;34.40;40.20;;;;;;4939223;29;20034;-74
2022/06/15 12:20:32;;;;;;;1.88;1.42;;;34.30;40.70;;;;;;4921814;29;20070;-74
2022/06/15 12:23:19;;;;;;;2.85;1.48;;;34.60;41.20;;;;;;4939064;29;20032;-75
2022/06/15 12:26:22;;;;;;;4.93;1.67;;;35.00;40.80;;;;;;4939164;29;20119;-74
2022/06/15 12:28:55;;;;;;;3.38;1.27;;;34.20;39.50;;;;;;4936346;29;20043;-74
2022/06/15 12:31:44;;;;;;;4.15;1.73;;;34.10;40.50;;;;;;4939020;29;20123;-75
2022/06/15 12:34:34;;;;;;;2.90;1.67;;;33.90;41.10;;;;;;4939385;29;20035;-75
2022/06/15 12:37:22;;;;;;;7.05;1.67;;;34.40;40.40;;;;;;4939538;29;20031;-86
2022/06/15 12:39:57;;;;;;;2.55;1.42;;;33.60;39.70;;;;;;4939336;29;20032;-87
2022/06/15 12:42:22;;;;;;;4.85;1.77;;;33.30;40.30;;;;;;4922739;29;20043;-86
2022/06/15 12:45:01;;;;;;;5.15;1.60;;;33.20;41.10;;;;;;4939377;29;20387;-88
2022/06/15 12:47:29;;;;;;;4.32;1.60;;;32.00;41.40;;;;;;4939094;29;20022;-86
2022/06/15 12:50:19;;;;;;;2.35;1.48;;;31.20;42.90;;;;;;4938813;29;20110;-86
2022/06/15 12:52:53;;;;;;;3.78;1.60;;;31.20;43.30;;;;;;4938710;29;20035;-85
2022/06/15 12:55:48;;;;;;;2.65;1.67;;;31.20;42.80;;;;;;4922376;29;20082;-86
2022/06/15 12:58:42;;;;;;;3.55;1.50;;;31.60;41.50;;;;;;4938984;29;20031;-86
2022/06/15 13:01:17;;;;;;;3.08;1.40;;;31.80;41.10;;;;;;4938801;29;20031;-86
2022/06/15 13:03:52;;;;;;;2.30;1.35;;;32.70;39.70;;;;;;4922408;29;20055;-87
2022/06/15 13:06:31;;;;;;;4.13;1.40;;;32.50;39.40;;;;;;4921875;29;20028;-87
2022/06/15 13:09:16;;;;;;;3.40;1.30;;;33.40;38.90;;;;;;4938544;29;20030;-86
2022/06/15 13:12:09;;;;;;;2.60;1.60;;;34.50;39.00;;;;;;4921294;29;20423;-86
2022/06/15 13:14:40;;;;;;;4.72;1.60;;;34.30;39.30;;;;;;4911773;29;20507;-84
2022/06/15 13:17:16;;;;;;;3.95;1.80;;;34.10;38.60;;;;;;4938161;29;20027;-84
2022/06/15 13:20:06;;;;;;;6.07;1.70;;;33.50;39.30;;;;;;4921425;29;20062;-85
2022/06/15 13:22:38;;;;;;;7.20;1.90;;;33.00;40.00;;;;;;4938497;29;20031;-86
2022/06/15 13:25:16;;;;;;;2.28;1.40;;;32.70;40.80;;;;;;4937708;29;20039;-86
2022/06/15 13:28:07;;;;;;;6.32;1.50;;;32.20;40.40;;;;;;4921129;29;20531;-86